sensor_id;sensor_type;location;lat;lon;timestamp;temperature;humidity
54832;DHT22;40730;53.068;6.572;2022-09-02T00:03:48;14.40;99.90
54832;DHT22;40730;53.068;6.572;2022-09-02T00:06:15;14.40;99.90
54832;DHT22;40730;53.068;6.572;2022-09-02T00:08:41;14.30;99.90
54832;DHT22;40730;53.068;6.572;2022-09-02T00:11:13;14.30;99.90
54832;DHT22;40730;53.068;6.572;2022-09-02T00:13:39;14.30;99.90
54832;DHT22;40730;53.068;6.572;2022-09-02T00:16:05;14.30;99.90
54832;DHT22;40730;53.068;6.572;2022-09-02T00:18:31;14.20;99.90
54832;DHT22;40730;53.068;6.572;2022-09-02T00:20:58;14.10;99.90
54832;DHT22;40730;53.068;6.572;2022-09-02T00:23:23;14.10;99.90
54832;DHT22;40730;53.068;6.572;2022-09-02T00:25:49;14.10;99.90
54832;DHT22;40730;53.068;6.572;2022-09-02T00:28:15;14.10;99.90
54832;DHT22;40730;53.068;6.572;2022-09-02T00:30:42;14.00;99.90
54832;DHT22;40730;53.068;6.572;2022-09-02T00:33:08;14.00;99.90
54832;DHT22;40730;53.068;6.572;2022-09-02T00:35:34;14.00;99.90
54832;DHT22;40730;53.068;6.572;2022-09-02T00:38:00;13.90;99.90
54832;DHT22;40730;53.068;6.572;2022-09-02T00:40:27;13.90;99.90
54832;DHT22;40730;53.068;6.572;2022-09-02T00:42:53;13.80;99.90
54832;DHT22;40730;53.068;6.572;2022-09-02T00:45:19;13.80;99.90
54832;DHT22;40730;53.068;6.572;2022-09-02T00:47:45;13.80;99.90
54832;DHT22;40730;53.068;6.572;2022-09-02T00:50:14;13.80;99.90
54832;DHT22;40730;53.068;6.572;2022-09-02T00:52:45;13.70;99.90
54832;DHT22;40730;53.068;6.572;2022-09-02T00:55:15;13.70;99.90
54832;DHT22;40730;53.068;6.572;2022-09-02T00:57:47;13.70;99.90
54832;DHT22;40730;53.068;6.572;2022-09-02T01:00:21;13.60;99.90
54832;DHT22;40730;53.068;6.572;2022-09-02T01:02:57;13.60;99.90
54832;DHT22;40730;53.068;6.572;2022-09-02T01:05:28;13.60;99.90
54832;DHT22;40730;53.068;6.572;2022-09-02T01:07:55;13.60;99.90
54832;DHT22;40730;53.068;6.572;2022-09-02T01:10:28;13.50;99.90
54832;DHT22;40730;53.068;6.572;2022-09-02T01:13:03;13.50;99.90
54832;DHT22;40730;53.068;6.572;2022-09-02T01:15:38;13.50;99.90
54832;DHT22;40730;53.068;6.572;2022-09-02T01:18:07;13.50;99.90
54832;DHT22;40730;53.068;6.572;2022-09-02T01:20:33;13.50;99.90
54832;DHT22;40730;53.068;6.572;2022-09-02T01:22:59;13.40;99.90
54832;DHT22;40730;53.068;6.572;2022-09-02T01:25:31;13.40;99.90
54832;DHT22;40730;53.068;6.572;2022-09-02T01:28:01;13.40;99.90
54832;DHT22;40730;53.068;6.572;2022-09-02T01:30:28;13.40;99.90
54832;DHT22;40730;53.068;6.572;2022-09-02T01:32:53;13.40;99.90
54832;DHT22;40730;53.068;6.572;2022-09-02T01:35:20;13.30;99.90
54832;DHT22;40730;53.068;6.572;2022-09-02T01:37:46;13.30;99.90
54832;DHT22;40730;53.068;6.572;2022-09-02T01:40:15;13.30;99.90
54832;DHT22;40730;53.068;6.572;2022-09-02T01:42:41;13.30;99.90
54832;DHT22;40730;53.068;6.572;2022-09-02T01:45:07;13.30;99.90
54832;DHT22;40730;53.068;6.572;2022-09-02T01:47:34;13.30;99.90
54832;DHT22;40730;53.068;6.572;2022-09-02T01:50:00;13.30;99.90
54832;DHT22;40730;53.068;6.572;2022-09-02T01:52:28;13.20;99.90
54832;DHT22;40730;53.068;6.572;2022-09-02T01:54:54;13.20;99.90
54832;DHT22;40730;53.068;6.572;2022-09-02T01:57:20;13.20;99.90
54832;DHT22;40730;53.068;6.572;2022-09-02T01:59:49;13.10;99.90
54832;DHT22;40730;53.068;6.572;2022-09-02T02:02:16;13.10;99.90
54832;DHT22;40730;53.068;6.572;2022-09-02T02:04:45;13.10;99.90
54832;DHT22;40730;53.068;6.572;2022-09-02T02:07:12;13.10;99.90
54832;DHT22;40730;53.068;6.572;2022-09-02T02:09:39;13.00;99.90
54832;DHT22;40730;53.068;6.572;2022-09-02T02:12:04;13.00;99.90
54832;DHT22;40730;53.068;6.572;2022-09-02T02:14:30;13.00;99.90
54832;DHT22;40730;53.068;6.572;2022-09-02T02:16:56;13.00;99.90
54832;DHT22;40730;53.068;6.572;2022-09-02T02:19:22;13.00;99.90
54832;DHT22;40730;53.068;6.572;2022-09-02T02:21:47;13.00;99.90
54832;DHT22;40730;53.068;6.572;2022-09-02T02:24:13;12.90;99.90
54832;DHT22;40730;53.068;6.572;2022-09-02T02:26:39;12.90;99.90
54832;DHT22;40730;53.068;6.572;2022-09-02T02:29:05;12.90;99.90
54832;DHT22;40730;53.068;6.572;2022-09-02T02:31:31;12.90;99.90
54832;DHT22;40730;53.068;6.572;2022-09-02T02:33:57;12.80;99.90
54832;DHT22;40730;53.068;6.572;2022-09-02T02:36:24;12.90;99.90
54832;DHT22;40730;53.068;6.572;2022-09-02T02:38:50;12.90;99.90
54832;DHT22;40730;53.068;6.572;2022-09-02T02:41:16;12.90;99.90
54832;DHT22;40730;53.068;6.572;2022-09-02T02:43:42;12.80;99.90
54832;DHT22;40730;53.068;6.572;2022-09-02T02:46:08;12.80;99.90
54832;DHT22;40730;53.068;6.572;2022-09-02T02:48:34;12.80;99.90
54832;DHT22;40730;53.068;6.572;2022-09-02T02:51:00;12.80;99.90
54832;DHT22;40730;53.068;6.572;2022-09-02T02:53:26;12.80;99.90
54832;DHT22;40730;53.068;6.572;2022-09-02T02:55:54;12.70;99.90
54832;DHT22;40730;53.068;6.572;2022-09-02T02:58:20;12.70;99.90
54832;DHT22;40730;53.068;6.572;2022-09-02T03:00:46;12.70;99.90
54832;DHT22;40730;53.068;6.572;2022-09-02T03:03:12;12.70;99.90
54832;DHT22;40730;53.068;6.572;2022-09-02T03:05:39;12.60;99.90
54832;DHT22;40730;53.068;6.572;2022-09-02T03:08:06;12.60;99.90
54832;DHT22;40730;53.068;6.572;2022-09-02T03:10:32;12.60;99.90
54832;DHT22;40730;53.068;6.572;2022-09-02T03:12:59;12.60;99.90
54832;DHT22;40730;53.068;6.572;2022-09-02T03:15:25;12.50;99.90
54832;DHT22;40730;53.068;6.572;2022-09-02T03:17:51;12.50;99.90
54832;DHT22;40730;53.068;6.572;2022-09-02T03:20:18;12.50;99.90
54832;DHT22;40730;53.068;6.572;2022-09-02T03:22:45;12.50;99.90
54832;DHT22;40730;53.068;6.572;2022-09-02T03:25:13;12.40;99.90
54832;DHT22;40730;53.068;6.572;2022-09-02T03:27:40;12.50;99.90
54832;DHT22;40730;53.068;6.572;2022-09-02T03:30:09;12.40;99.90
54832;DHT22;40730;53.068;6.572;2022-09-02T03:32:35;12.40;99.90
54832;DHT22;40730;53.068;6.572;2022-09-02T03:35:05;12.40;99.90
54832;DHT22;40730;53.068;6.572;2022-09-02T03:37:32;12.40;99.90
54832;DHT22;40730;53.068;6.572;2022-09-02T03:40:00;12.30;99.90
54832;DHT22;40730;53.068;6.572;2022-09-02T03:42:25;12.30;99.90
54832;DHT22;40730;53.068;6.572;2022-09-02T03:44:51;12.30;99.90
54832;DHT22;40730;53.068;6.572;2022-09-02T03:47:17;12.30;99.90
54832;DHT22;40730;53.068;6.572;2022-09-02T03:49:46;12.30;99.90
54832;DHT22;40730;53.068;6.572;2022-09-02T03:52:11;12.20;99.90
54832;DHT22;40730;53.068;6.572;2022-09-02T03:54:37;12.20;99.90
54832;DHT22;40730;53.068;6.572;2022-09-02T03:57:03;12.20;99.90
54832;DHT22;40730;53.068;6.572;2022-09-02T03:59:28;12.20;99.90
54832;DHT22;40730;53.068;6.572;2022-09-02T04:01:54;12.50;99.90
54832;DHT22;40730;53.068;6.572;2022-09-02T04:04:20;12.10;99.90
54832;DHT22;40730;53.068;6.572;2022-09-02T04:06:46;12.10;99.90
54832;DHT22;40730;53.068;6.572;2022-09-02T04:09:11;12.10;99.90
54832;DHT22;40730;53.068;6.572;2022-09-02T04:11:38;12.10;99.90
54832;DHT22;40730;53.068;6.572;2022-09-02T04:14:09;12.00;99.90
54832;DHT22;40730;53.068;6.572;2022-09-02T04:16:36;12.00;99.90
54832;DHT22;40730;53.068;6.572;2022-09-02T04:19:02;12.00;99.90
54832;DHT22;40730;53.068;6.572;2022-09-02T04:21:32;12.00;99.90
54832;DHT22;40730;53.068;6.572;2022-09-02T04:23:58;12.00;99.90
54832;DHT22;40730;53.068;6.572;2022-09-02T04:26:24;12.00;99.90
54832;DHT22;40730;53.068;6.572;2022-09-02T04:28:50;12.00;99.90
54832;DHT22;40730;53.068;6.572;2022-09-02T04:31:18;12.00;99.90
54832;DHT22;40730;53.068;6.572;2022-09-02T04:33:44;12.00;99.90
54832;DHT22;40730;53.068;6.572;2022-09-02T04:36:12;12.00;99.90
54832;DHT22;40730;53.068;6.572;2022-09-02T04:38:38;12.00;99.90
54832;DHT22;40730;53.068;6.572;2022-09-02T04:41:09;12.00;99.90
54832;DHT22;40730;53.068;6.572;2022-09-02T04:43:35;11.90;99.90
54832;DHT22;40730;53.068;6.572;2022-09-02T04:46:07;11.90;99.90
54832;DHT22;40730;53.068;6.572;2022-09-02T04:48:34;11.90;99.90
54832;DHT22;40730;53.068;6.572;2022-09-02T04:51:21;11.90;99.90
54832;DHT22;40730;53.068;6.572;2022-09-02T04:53:50;11.90;99.90
54832;DHT22;40730;53.068;6.572;2022-09-02T04:56:21;11.90;99.90
54832;DHT22;40730;53.068;6.572;2022-09-02T04:58:47;11.80;99.90
54832;DHT22;40730;53.068;6.572;2022-09-02T05:01:19;11.80;99.90
54832;DHT22;40730;53.068;6.572;2022-09-02T05:03:46;11.80;99.90
54832;DHT22;40730;53.068;6.572;2022-09-02T05:06:15;11.80;99.90
54832;DHT22;40730;53.068;6.572;2022-09-02T05:08:42;11.90;99.90
54832;DHT22;40730;53.068;6.572;2022-09-02T05:11:10;11.80;99.90
54832;DHT22;40730;53.068;6.572;2022-09-02T05:13:36;11.80;99.90
54832;DHT22;40730;53.068;6.572;2022-09-02T05:16:02;11.80;99.90
54832;DHT22;40730;53.068;6.572;2022-09-02T05:18:27;11.80;99.90
54832;DHT22;40730;53.068;6.572;2022-09-02T05:20:53;11.80;99.90
54832;DHT22;40730;53.068;6.572;2022-09-02T05:23:19;11.90;99.90
54832;DHT22;40730;53.068;6.572;2022-09-02T05:25:44;11.90;99.90
54832;DHT22;40730;53.068;6.572;2022-09-02T05:28:10;11.90;99.90
54832;DHT22;40730;53.068;6.572;2022-09-02T05:30:38;11.90;99.90
54832;DHT22;40730;53.068;6.572;2022-09-02T05:33:05;12.00;99.90
54832;DHT22;40730;53.068;6.572;2022-09-02T05:35:31;12.00;99.90
54832;DHT22;40730;53.068;6.572;2022-09-02T05:37:57;12.00;99.90
54832;DHT22;40730;53.068;6.572;2022-09-02T05:40:23;12.10;99.90
54832;DHT22;40730;53.068;6.572;2022-09-02T05:42:48;12.10;99.90
54832;DHT22;40730;53.068;6.572;2022-09-02T05:45:14;12.20;99.90
54832;DHT22;40730;53.068;6.572;2022-09-02T05:47:39;12.20;99.90
54832;DHT22;40730;53.068;6.572;2022-09-02T05:50:06;12.30;99.90
54832;DHT22;40730;53.068;6.572;2022-09-02T05:52:32;12.40;99.90
54832;DHT22;40730;53.068;6.572;2022-09-02T05:54:58;12.40;99.90
54832;DHT22;40730;53.068;6.572;2022-09-02T05:57:25;12.50;99.90
54832;DHT22;40730;53.068;6.572;2022-09-02T05:59:51;12.50;99.90
54832;DHT22;40730;53.068;6.572;2022-09-02T06:02:22;12.60;99.90
54832;DHT22;40730;53.068;6.572;2022-09-02T06:04:50;12.70;99.90
54832;DHT22;40730;53.068;6.572;2022-09-02T06:07:19;12.80;99.90
54832;DHT22;40730;53.068;6.572;2022-09-02T06:09:45;12.80;99.90
54832;DHT22;40730;53.068;6.572;2022-09-02T06:12:12;12.90;99.90
54832;DHT22;40730;53.068;6.572;2022-09-02T06:14:38;13.00;99.90
54832;DHT22;40730;53.068;6.572;2022-09-02T06:17:04;13.10;99.90
54832;DHT22;40730;53.068;6.572;2022-09-02T06:19:31;13.30;99.90
54832;DHT22;40730;53.068;6.572;2022-09-02T06:21:58;13.40;99.90
54832;DHT22;40730;53.068;6.572;2022-09-02T06:24:25;13.60;99.90
54832;DHT22;40730;53.068;6.572;2022-09-02T06:26:51;13.70;99.90
54832;DHT22;40730;53.068;6.572;2022-09-02T06:29:18;13.90;99.90
54832;DHT22;40730;53.068;6.572;2022-09-02T06:31:45;14.10;99.90
54832;DHT22;40730;53.068;6.572;2022-09-02T06:34:12;14.20;99.90
54832;DHT22;40730;53.068;6.572;2022-09-02T06:36:40;14.40;99.90
54832;DHT22;40730;53.068;6.572;2022-09-02T06:39:06;14.50;99.90
54832;DHT22;40730;53.068;6.572;2022-09-02T06:41:32;14.60;99.90
54832;DHT22;40730;53.068;6.572;2022-09-02T06:44:01;14.80;99.90
54832;DHT22;40730;53.068;6.572;2022-09-02T06:46:34;14.90;99.90
54832;DHT22;40730;53.068;6.572;2022-09-02T06:49:00;15.10;99.90
54832;DHT22;40730;53.068;6.572;2022-09-02T06:53:55;15.40;99.90
54832;DHT22;40730;53.068;6.572;2022-09-02T06:56:20;15.60;99.90
54832;DHT22;40730;53.068;6.572;2022-09-02T06:58:46;15.70;99.90
54832;DHT22;40730;53.068;6.572;2022-09-02T07:01:20;15.80;99.90
54832;DHT22;40730;53.068;6.572;2022-09-02T07:03:45;16.00;99.90
54832;DHT22;40730;53.068;6.572;2022-09-02T07:06:36;16.20;99.90
54832;DHT22;40730;53.068;6.572;2022-09-02T07:09:04;16.40;99.90
54832;DHT22;40730;53.068;6.572;2022-09-02T07:11:30;16.60;99.90
54832;DHT22;40730;53.068;6.572;2022-09-02T07:13:56;16.70;99.90
54832;DHT22;40730;53.068;6.572;2022-09-02T07:16:27;16.90;99.90
54832;DHT22;40730;53.068;6.572;2022-09-02T07:18:53;16.90;99.90
54832;DHT22;40730;53.068;6.572;2022-09-02T07:21:19;17.20;99.90
54832;DHT22;40730;53.068;6.572;2022-09-02T07:23:45;17.20;99.70
54832;DHT22;40730;53.068;6.572;2022-09-02T07:26:12;17.30;99.30
54832;DHT22;40730;53.068;6.572;2022-09-02T07:28:38;17.60;99.20
54832;DHT22;40730;53.068;6.572;2022-09-02T07:31:08;17.70;98.50
54832;DHT22;40730;53.068;6.572;2022-09-02T07:33:33;18.00;98.20
54832;DHT22;40730;53.068;6.572;2022-09-02T07:36:04;18.20;97.80
54832;DHT22;40730;53.068;6.572;2022-09-02T07:38:31;18.30;97.40
54832;DHT22;40730;53.068;6.572;2022-09-02T07:40:57;18.60;96.60
54832;DHT22;40730;53.068;6.572;2022-09-02T07:43:24;18.70;95.70
54832;DHT22;40730;53.068;6.572;2022-09-02T07:45:51;18.90;95.00
54832;DHT22;40730;53.068;6.572;2022-09-02T07:48:17;19.00;94.60
54832;DHT22;40730;53.068;6.572;2022-09-02T07:50:43;19.20;94.10
54832;DHT22;40730;53.068;6.572;2022-09-02T07:53:09;19.40;93.10
54832;DHT22;40730;53.068;6.572;2022-09-02T07:55:36;19.60;92.20
54832;DHT22;40730;53.068;6.572;2022-09-02T07:58:02;19.80;91.40
54832;DHT22;40730;53.068;6.572;2022-09-02T08:00:29;19.90;90.40
54832;DHT22;40730;53.068;6.572;2022-09-02T08:02:55;19.90;89.90
54832;DHT22;40730;53.068;6.572;2022-09-02T08:05:21;20.40;88.50
54832;DHT22;40730;53.068;6.572;2022-09-02T08:07:47;20.60;87.70
54832;DHT22;40730;53.068;6.572;2022-09-02T08:10:12;20.90;84.90
54832;DHT22;40730;53.068;6.572;2022-09-02T08:12:42;21.20;82.30
54832;DHT22;40730;53.068;6.572;2022-09-02T08:15:09;21.40;80.80
54832;DHT22;40730;53.068;6.572;2022-09-02T08:17:36;21.50;78.30
54832;DHT22;40730;53.068;6.572;2022-09-02T08:20:02;21.60;77.80
54832;DHT22;40730;53.068;6.572;2022-09-02T08:22:34;21.90;76.70
54832;DHT22;40730;53.068;6.572;2022-09-02T08:25:01;22.00;75.00
54832;DHT22;40730;53.068;6.572;2022-09-02T08:27:26;22.20;74.20
54832;DHT22;40730;53.068;6.572;2022-09-02T08:29:52;22.50;72.60
54832;DHT22;40730;53.068;6.572;2022-09-02T08:32:18;22.60;71.10
54832;DHT22;40730;53.068;6.572;2022-09-02T08:34:44;22.70;70.70
54832;DHT22;40730;53.068;6.572;2022-09-02T08:37:10;22.90;69.30
54832;DHT22;40730;53.068;6.572;2022-09-02T08:39:35;23.20;67.90
54832;DHT22;40730;53.068;6.572;2022-09-02T08:42:19;23.60;67.00
54832;DHT22;40730;53.068;6.572;2022-09-02T08:44:46;23.80;64.90
54832;DHT22;40730;53.068;6.572;2022-09-02T08:47:18;24.10;64.00
54832;DHT22;40730;53.068;6.572;2022-09-02T08:49:55;24.10;62.20
54832;DHT22;40730;53.068;6.572;2022-09-02T08:52:44;24.40;60.90
54832;DHT22;40730;53.068;6.572;2022-09-02T08:55:20;24.70;59.30
54832;DHT22;40730;53.068;6.572;2022-09-02T08:57:48;24.90;58.80
54832;DHT22;40730;53.068;6.572;2022-09-02T09:00:14;25.10;57.60
54832;DHT22;40730;53.068;6.572;2022-09-02T09:08:09;25.50;56.40
54832;DHT22;40730;53.068;6.572;2022-09-02T09:11:03;25.60;56.00
54832;DHT22;40730;53.068;6.572;2022-09-02T09:14:02;25.80;55.30
54832;DHT22;40730;53.068;6.572;2022-09-02T09:16:47;25.90;53.60
54832;DHT22;40730;53.068;6.572;2022-09-02T09:19:27;26.00;53.60
54832;DHT22;40730;53.068;6.572;2022-09-02T09:21:57;26.20;54.00
54832;DHT22;40730;53.068;6.572;2022-09-02T09:24:36;26.60;53.60
54832;DHT22;40730;53.068;6.572;2022-09-02T09:27:20;26.80;52.70
54832;DHT22;40730;53.068;6.572;2022-09-02T09:29:46;27.10;52.20
54832;DHT22;40730;53.068;6.572;2022-09-02T09:32:34;27.40;51.40
54832;DHT22;40730;53.068;6.572;2022-09-02T09:35:13;27.60;50.90
54832;DHT22;40730;53.068;6.572;2022-09-02T09:37:42;27.90;50.10
54832;DHT22;40730;53.068;6.572;2022-09-02T09:40:30;28.00;49.40
54832;DHT22;40730;53.068;6.572;2022-09-02T09:48:21;28.40;46.10
54832;DHT22;40730;53.068;6.572;2022-09-02T09:55:56;29.00;46.80
54832;DHT22;40730;53.068;6.572;2022-09-02T09:58:26;29.00;44.90
54832;DHT22;40730;53.068;6.572;2022-09-02T10:00:55;29.10;44.80
54832;DHT22;40730;53.068;6.572;2022-09-02T10:03:26;29.30;43.80
54832;DHT22;40730;53.068;6.572;2022-09-02T10:05:54;29.40;42.90
54832;DHT22;40730;53.068;6.572;2022-09-02T10:08:23;29.70;43.30
54832;DHT22;40730;53.068;6.572;2022-09-02T10:11:04;30.30;43.00
54832;DHT22;40730;53.068;6.572;2022-09-02T10:13:35;30.30;41.60
54832;DHT22;40730;53.068;6.572;2022-09-02T10:16:08;30.40;41.70
54832;DHT22;40730;53.068;6.572;2022-09-02T10:29:01;31.00;40.50
54832;DHT22;40730;53.068;6.572;2022-09-02T10:31:40;31.50;39.70
54832;DHT22;40730;53.068;6.572;2022-09-02T10:37:19;31.70;38.40
54832;DHT22;40730;53.068;6.572;2022-09-02T10:42:53;31.80;37.40
54832;DHT22;40730;53.068;6.572;2022-09-02T10:45:23;31.80;37.70
54832;DHT22;40730;53.068;6.572;2022-09-02T10:53:56;32.60;36.40
54832;DHT22;40730;53.068;6.572;2022-09-02T10:56:30;32.60;35.80
54832;DHT22;40730;53.068;6.572;2022-09-02T10:59:10;32.70;34.90
54832;DHT22;40730;53.068;6.572;2022-09-02T11:01:56;32.70;33.70
54832;DHT22;40730;53.068;6.572;2022-09-02T11:04:35;32.90;34.60
54832;DHT22;40730;53.068;6.572;2022-09-02T11:07:07;33.10;34.30
54832;DHT22;40730;53.068;6.572;2022-09-02T11:09:42;32.80;33.40
54832;DHT22;40730;53.068;6.572;2022-09-02T11:12:28;32.70;33.80
54832;DHT22;40730;53.068;6.572;2022-09-02T11:17:27;32.90;34.00
54832;DHT22;40730;53.068;6.572;2022-09-02T11:19:59;33.00;33.10
54832;DHT22;40730;53.068;6.572;2022-09-02T11:22:36;33.10;32.70
54832;DHT22;40730;53.068;6.572;2022-09-02T11:25:24;33.20;31.60
54832;DHT22;40730;53.068;6.572;2022-09-02T11:28:03;33.10;31.90
54832;DHT22;40730;53.068;6.572;2022-09-02T11:30:59;32.80;31.70
54832;DHT22;40730;53.068;6.572;2022-09-02T11:33:33;32.30;32.50
54832;DHT22;40730;53.068;6.572;2022-09-02T11:36:02;32.40;32.90
54832;DHT22;40730;53.068;6.572;2022-09-02T11:38:58;32.80;33.00
54832;DHT22;40730;53.068;6.572;2022-09-02T11:41:47;32.90;31.50
54832;DHT22;40730;53.068;6.572;2022-09-02T11:47:04;33.40;30.90
54832;DHT22;40730;53.068;6.572;2022-09-02T11:55:41;34.00;31.40
54832;DHT22;40730;53.068;6.572;2022-09-02T11:58:10;34.20;30.70
54832;DHT22;40730;53.068;6.572;2022-09-02T12:03:27;34.40;30.30
54832;DHT22;40730;53.068;6.572;2022-09-02T12:06:09;34.80;30.00
54832;DHT22;40730;53.068;6.572;2022-09-02T12:11:08;34.80;29.40
54832;DHT22;40730;53.068;6.572;2022-09-02T12:13:44;34.70;29.30
54832;DHT22;40730;53.068;6.572;2022-09-02T12:21:33;34.80;29.60
54832;DHT22;40730;53.068;6.572;2022-09-02T12:24:10;34.90;29.40
54832;DHT22;40730;53.068;6.572;2022-09-02T12:31:47;34.50;30.00
54832;DHT22;40730;53.068;6.572;2022-09-02T12:36:55;34.90;29.70
54832;DHT22;40730;53.068;6.572;2022-09-02T12:45:10;34.70;29.20
54832;DHT22;40730;53.068;6.572;2022-09-02T12:48:00;34.80;29.30
54832;DHT22;40730;53.068;6.572;2022-09-02T12:50:53;35.10;28.90
54832;DHT22;40730;53.068;6.572;2022-09-02T12:58:23;35.60;28.70
54832;DHT22;40730;53.068;6.572;2022-09-02T13:12:43;35.80;28.00
54832;DHT22;40730;53.068;6.572;2022-09-02T13:15:18;35.60;27.90
54832;DHT22;40730;53.068;6.572;2022-09-02T13:23:52;35.80;28.20
54832;DHT22;40730;53.068;6.572;2022-09-02T13:32:24;35.50;27.60
54832;DHT22;40730;53.068;6.572;2022-09-02T13:34:53;34.40;28.20
54832;DHT22;40730;53.068;6.572;2022-09-02T13:37:41;33.50;29.00
54832;DHT22;40730;53.068;6.572;2022-09-02T13:42:38;32.00;30.00
54832;DHT22;40730;53.068;6.572;2022-09-02T13:45:16;31.50;30.90
54832;DHT22;40730;53.068;6.572;2022-09-02T13:47:44;30.80;31.20
54832;DHT22;40730;53.068;6.572;2022-09-02T13:50:13;30.50;31.40
54832;DHT22;40730;53.068;6.572;2022-09-02T13:52:40;30.10;31.70
54832;DHT22;40730;53.068;6.572;2022-09-02T13:55:12;29.50;32.00
54832;DHT22;40730;53.068;6.572;2022-09-02T13:57:38;29.00;33.10
54832;DHT22;40730;53.068;6.572;2022-09-02T14:00:08;28.70;33.70
54832;DHT22;40730;53.068;6.572;2022-09-02T14:02:37;28.40;34.20
54832;DHT22;40730;53.068;6.572;2022-09-02T14:05:08;28.10;34.30
54832;DHT22;40730;53.068;6.572;2022-09-02T14:07:51;27.90;34.40
54832;DHT22;40730;53.068;6.572;2022-09-02T14:10:20;27.70;35.20
54832;DHT22;40730;53.068;6.572;2022-09-02T14:12:47;27.40;35.00
54832;DHT22;40730;53.068;6.572;2022-09-02T14:15:16;27.10;35.70
54832;DHT22;40730;53.068;6.572;2022-09-02T14:20:35;26.80;36.60
54832;DHT22;40730;53.068;6.572;2022-09-02T14:23:01;26.70;36.40
54832;DHT22;40730;53.068;6.572;2022-09-02T14:25:32;26.70;36.40
54832;DHT22;40730;53.068;6.572;2022-09-02T14:27:59;26.70;36.40
54832;DHT22;40730;53.068;6.572;2022-09-02T14:30:32;26.70;36.50
54832;DHT22;40730;53.068;6.572;2022-09-02T14:35:58;26.40;37.00
54832;DHT22;40730;53.068;6.572;2022-09-02T14:38:26;26.20;36.40
54832;DHT22;40730;53.068;6.572;2022-09-02T14:41:04;25.90;36.50
54832;DHT22;40730;53.068;6.572;2022-09-02T14:43:42;25.80;37.60
54832;DHT22;40730;53.068;6.572;2022-09-02T14:48:52;25.80;38.50
54832;DHT22;40730;53.068;6.572;2022-09-02T14:51:18;25.70;38.10
54832;DHT22;40730;53.068;6.572;2022-09-02T14:53:44;25.60;38.20
54832;DHT22;40730;53.068;6.572;2022-09-02T14:56:10;25.50;38.10
54832;DHT22;40730;53.068;6.572;2022-09-02T14:58:35;25.40;38.30
54832;DHT22;40730;53.068;6.572;2022-09-02T15:01:01;25.30;38.40
54832;DHT22;40730;53.068;6.572;2022-09-02T15:03:28;25.20;38.30
54832;DHT22;40730;53.068;6.572;2022-09-02T15:05:54;25.20;38.30
54832;DHT22;40730;53.068;6.572;2022-09-02T15:08:20;25.00;38.50
54832;DHT22;40730;53.068;6.572;2022-09-02T15:10:46;24.90;38.70
54832;DHT22;40730;53.068;6.572;2022-09-02T15:13:28;24.80;39.00
54832;DHT22;40730;53.068;6.572;2022-09-02T15:15:54;24.80;39.10
54832;DHT22;40730;53.068;6.572;2022-09-02T15:18:21;24.90;38.60
54832;DHT22;40730;53.068;6.572;2022-09-02T15:20:47;24.90;39.60
54832;DHT22;40730;53.068;6.572;2022-09-02T15:23:14;24.90;39.20
54832;DHT22;40730;53.068;6.572;2022-09-02T15:25:40;25.00;39.90
54832;DHT22;40730;53.068;6.572;2022-09-02T15:28:05;25.00;39.90
54832;DHT22;40730;53.068;6.572;2022-09-02T15:30:33;25.00;39.80
54832;DHT22;40730;53.068;6.572;2022-09-02T15:33:04;24.90;39.40
54832;DHT22;40730;53.068;6.572;2022-09-02T15:35:33;24.80;39.60
54832;DHT22;40730;53.068;6.572;2022-09-02T15:38:02;24.80;39.50
54832;DHT22;40730;53.068;6.572;2022-09-02T15:40:29;24.70;39.80
54832;DHT22;40730;53.068;6.572;2022-09-02T15:42:56;24.70;40.10
54832;DHT22;40730;53.068;6.572;2022-09-02T15:45:22;24.60;39.90
54832;DHT22;40730;53.068;6.572;2022-09-02T15:47:47;24.60;39.90
54832;DHT22;40730;53.068;6.572;2022-09-02T15:50:13;24.60;40.20
54832;DHT22;40730;53.068;6.572;2022-09-02T15:52:39;24.80;40.70
54832;DHT22;40730;53.068;6.572;2022-09-02T15:55:05;24.80;40.90
54832;DHT22;40730;53.068;6.572;2022-09-02T15:57:31;24.80;41.20
54832;DHT22;40730;53.068;6.572;2022-09-02T15:59:56;24.70;41.60
54832;DHT22;40730;53.068;6.572;2022-09-02T16:02:22;24.60;42.00
54832;DHT22;40730;53.068;6.572;2022-09-02T16:04:47;24.50;42.10
54832;DHT22;40730;53.068;6.572;2022-09-02T16:07:13;24.30;42.20
54832;DHT22;40730;53.068;6.572;2022-09-02T16:09:39;24.20;42.80
54832;DHT22;40730;53.068;6.572;2022-09-02T16:12:05;24.00;43.20
54832;DHT22;40730;53.068;6.572;2022-09-02T16:14:31;24.00;42.90
54832;DHT22;40730;53.068;6.572;2022-09-02T16:16:57;24.00;43.00
54832;DHT22;40730;53.068;6.572;2022-09-02T16:19:24;23.90;43.10
54832;DHT22;40730;53.068;6.572;2022-09-02T16:21:50;24.00;43.00
54832;DHT22;40730;53.068;6.572;2022-09-02T16:24:17;24.00;43.30
54832;DHT22;40730;53.068;6.572;2022-09-02T16:26:44;24.00;43.00
54832;DHT22;40730;53.068;6.572;2022-09-02T16:29:12;24.00;43.20
54832;DHT22;40730;53.068;6.572;2022-09-02T16:31:42;23.90;43.20
54832;DHT22;40730;53.068;6.572;2022-09-02T16:34:11;23.90;43.60
54832;DHT22;40730;53.068;6.572;2022-09-02T16:36:42;23.80;43.80
54832;DHT22;40730;53.068;6.572;2022-09-02T16:39:09;23.80;44.10
54832;DHT22;40730;53.068;6.572;2022-09-02T16:41:38;23.70;44.00
54832;DHT22;40730;53.068;6.572;2022-09-02T16:44:12;23.70;44.40
54832;DHT22;40730;53.068;6.572;2022-09-02T16:46:38;23.70;44.80
54832;DHT22;40730;53.068;6.572;2022-09-02T16:49:07;23.70;44.90
54832;DHT22;40730;53.068;6.572;2022-09-02T16:51:34;23.60;45.30
54832;DHT22;40730;53.068;6.572;2022-09-02T16:54:02;23.50;45.30
54832;DHT22;40730;53.068;6.572;2022-09-02T16:56:28;23.50;45.60
54832;DHT22;40730;53.068;6.572;2022-09-02T16:58:55;23.40;45.90
54832;DHT22;40730;53.068;6.572;2022-09-02T17:01:23;23.30;45.90
54832;DHT22;40730;53.068;6.572;2022-09-02T17:03:49;23.20;46.10
54832;DHT22;40730;53.068;6.572;2022-09-02T17:06:15;23.30;46.50
54832;DHT22;40730;53.068;6.572;2022-09-02T17:08:41;23.20;46.40
54832;DHT22;40730;53.068;6.572;2022-09-02T17:11:33;23.10;46.50
54832;DHT22;40730;53.068;6.572;2022-09-02T17:14:08;23.10;47.00
54832;DHT22;40730;53.068;6.572;2022-09-02T17:16:40;23.00;47.00
54832;DHT22;40730;53.068;6.572;2022-09-02T17:19:06;23.00;47.20
54832;DHT22;40730;53.068;6.572;2022-09-02T17:21:40;22.90;47.50
54832;DHT22;40730;53.068;6.572;2022-09-02T17:24:08;22.90;47.70
54832;DHT22;40730;53.068;6.572;2022-09-02T17:26:36;22.80;47.80
54832;DHT22;40730;53.068;6.572;2022-09-02T17:29:08;22.80;48.00
54832;DHT22;40730;53.068;6.572;2022-09-02T17:31:34;22.70;48.30
54832;DHT22;40730;53.068;6.572;2022-09-02T17:34:02;22.70;48.60
54832;DHT22;40730;53.068;6.572;2022-09-02T17:36:30;22.60;48.90
54832;DHT22;40730;53.068;6.572;2022-09-02T17:39:03;22.60;49.00
54832;DHT22;40730;53.068;6.572;2022-09-02T17:41:28;22.50;49.00